createdAt,value
2019-05-21T00:03:02.502Z,5.13
2019-05-21T00:07:14.249Z,5.20
2019-05-21T00:11:26.044Z,5.33
2019-05-21T00:15:37.983Z,5.27
2019-05-21T00:19:49.911Z,4.43
2019-05-21T00:24:01.567Z,3.93
2019-05-21T00:28:40.360Z,4.07
2019-05-21T00:33:27.176Z,4.30
2019-05-21T00:38:14.200Z,4.73
2019-05-21T00:42:35.136Z,4.90
2019-05-21T00:46:47.793Z,4.90
2019-05-21T00:50:59.471Z,5.00
2019-05-21T00:55:11.336Z,4.30
2019-05-21T00:59:23.330Z,4.67
2019-05-21T01:03:35.189Z,4.40
2019-05-21T01:07:47.085Z,4.00
2019-05-21T01:11:58.683Z,4.03
2019-05-21T01:16:10.421Z,4.80
2019-05-21T01:20:22.227Z,4.63
2019-05-21T01:24:34.083Z,4.17
2019-05-21T01:28:46.039Z,4.20
2019-05-21T01:32:57.899Z,4.47
2019-05-21T01:37:09.725Z,3.83
2019-05-21T01:41:21.376Z,4.50
2019-05-21T01:45:33.198Z,4.90
2019-05-21T01:49:44.993Z,5.70
2019-05-21T01:53:56.797Z,5.20
2019-05-21T01:58:09.493Z,5.60
2019-05-21T02:02:21.336Z,5.33
2019-05-21T02:06:33.233Z,5.20
2019-05-21T02:10:45.022Z,5.90
2019-05-21T02:14:56.931Z,5.90
2019-05-21T02:19:08.838Z,5.17
2019-05-21T02:23:20.816Z,5.77
2019-05-21T02:27:32.696Z,5.20
2019-05-21T02:31:44.338Z,5.67
2019-05-21T02:35:56.017Z,6.07
2019-05-21T02:40:08.137Z,5.27
2019-05-21T02:44:19.941Z,5.50
2019-05-21T02:48:31.742Z,5.30
2019-05-21T02:52:43.659Z,5.10
2019-05-21T02:56:55.462Z,5.20
2019-05-21T03:01:32.291Z,5.43
2019-05-21T03:05:44.267Z,6.20
2019-05-21T03:09:56.165Z,5.17
2019-05-21T03:14:07.765Z,6.73
2019-05-21T03:18:19.632Z,6.73
2019-05-21T03:22:31.444Z,6.67
2019-05-21T03:26:43.346Z,6.20
2019-05-21T03:30:55.197Z,5.27
2019-05-21T03:35:07.363Z,6.13
2019-05-21T03:39:19.682Z,5.93
2019-05-21T03:43:31.812Z,6.67
2019-05-21T03:47:43.693Z,6.60
2019-05-21T03:51:55.493Z,5.60
2019-05-21T03:56:07.297Z,5.60
2019-05-21T04:00:19.089Z,5.30
2019-05-21T04:04:30.830Z,5.43
2019-05-21T04:08:42.604Z,4.87
2019-05-21T04:13:10.335Z,4.90
2019-05-21T04:17:38.092Z,5.63
2019-05-21T04:21:49.808Z,5.00
2019-05-21T04:26:01.652Z,3.27
2019-05-21T04:30:14.697Z,3.30
2019-05-21T04:34:26.556Z,3.50
2019-05-21T04:38:38.395Z,4.57
2019-05-21T04:42:49.997Z,4.40
2019-05-21T04:47:01.770Z,5.03
2019-05-21T04:51:14.251Z,4.83
2019-05-21T04:55:26.081Z,6.20
2019-05-21T04:59:37.896Z,5.60
2019-05-21T05:03:49.692Z,5.23
2019-05-21T05:08:01.549Z,5.37
2019-05-21T05:12:13.106Z,5.67
2019-05-21T05:16:24.780Z,6.30
2019-05-21T05:20:36.684Z,6.27
2019-05-21T05:24:48.547Z,5.83
2019-05-21T05:29:00.301Z,5.50
2019-05-21T05:33:11.896Z,5.60
2019-05-21T05:37:23.656Z,5.77
2019-05-21T05:41:35.491Z,5.17
2019-05-21T05:45:47.296Z,5.67
2019-05-21T05:50:01.201Z,5.30
2019-05-21T05:54:13.050Z,5.57
2019-05-21T05:58:24.883Z,6.60
2019-05-21T06:02:36.779Z,6.10
2019-05-21T06:06:48.665Z,6.77
2019-05-21T06:11:00.544Z,5.47
2019-05-21T06:15:12.872Z,5.17
2019-05-21T06:19:24.897Z,5.80
2019-05-21T06:23:36.841Z,5.47
2019-05-21T06:27:48.699Z,5.27
2019-05-21T06:32:00.310Z,5.93
2019-05-21T06:36:11.974Z,6.50
2019-05-21T06:40:24.173Z,6.50
2019-05-21T06:44:36.001Z,5.97
2019-05-21T06:48:47.799Z,6.30
2019-05-21T06:52:59.598Z,5.47
2019-05-21T06:57:11.413Z,4.63
2019-05-21T07:01:28.731Z,5.87
2019-05-21T07:05:36.514Z,5.20
2019-05-21T07:09:48.237Z,4.80
2019-05-21T07:14:00.121Z,5.40
2019-05-21T07:18:12.500Z,5.47
2019-05-21T07:22:24.518Z,6.17
2019-05-21T07:26:36.429Z,5.83
2019-05-21T07:30:49.800Z,5.03
2019-05-21T07:35:01.671Z,5.50
2019-05-21T07:39:14.413Z,5.30
2019-05-21T07:43:26.396Z,5.13
2019-05-21T07:47:38.236Z,5.50
2019-05-21T07:51:50.041Z,6.07
2019-05-21T07:56:01.836Z,5.17
2019-05-21T08:00:15.045Z,5.10
2019-05-21T08:04:26.777Z,5.77
2019-05-21T08:08:38.574Z,5.20
2019-05-21T08:12:50.494Z,5.30
2019-05-21T08:17:02.434Z,5.27
2019-05-21T08:21:14.385Z,4.80
2019-05-21T08:25:26.242Z,5.83
2019-05-21T08:29:38.929Z,4.50
2019-05-21T08:33:50.710Z,5.07
2019-05-21T08:38:06.627Z,4.40
2019-05-21T08:42:16.889Z,5.50
2019-05-21T08:46:30.056Z,5.47
2019-05-21T08:50:42.331Z,5.33
2019-05-21T08:54:56.351Z,5.07
2019-05-21T08:59:08.786Z,4.97
2019-05-21T09:03:20.394Z,5.27
2019-05-21T09:07:32.065Z,5.17
2019-05-21T09:11:43.885Z,4.70
2019-05-21T09:15:55.790Z,7.10
2019-05-21T09:20:08.450Z,5.47
2019-05-21T09:24:20.158Z,5.07
2019-05-21T09:28:32.016Z,7.27
2019-05-21T09:32:43.834Z,6.30
2019-05-21T09:36:55.972Z,5.83
2019-05-21T09:41:07.828Z,6.50
2019-05-21T09:45:19.637Z,7.10
2019-05-21T09:49:31.302Z,7.27
2019-05-21T09:53:43.018Z,6.33
2019-05-21T09:58:04.302Z,6.23
2019-05-21T10:02:19.704Z,6.13
2019-05-21T10:06:33.402Z,6.93
2019-05-21T10:10:45.080Z,6.07
2019-05-21T10:14:56.869Z,7.27
2019-05-21T10:19:08.738Z,6.33
2019-05-21T10:23:20.687Z,6.23
2019-05-21T10:27:32.441Z,7.57
2019-05-21T10:31:44.166Z,7.00
2019-05-21T10:35:55.993Z,7.10
2019-05-21T10:40:09.085Z,5.90
2019-05-21T10:44:21.025Z,7.00
2019-05-21T10:48:32.634Z,6.00
2019-05-21T10:52:44.457Z,7.40
2019-05-21T10:56:56.224Z,5.90
2019-05-21T11:01:15.177Z,7.93
2019-05-21T11:05:34.942Z,9.40
2019-05-21T11:09:46.663Z,8.33
2019-05-21T11:13:58.482Z,5.93
2019-05-21T11:18:11.698Z,9.17
2019-05-21T11:22:23.980Z,9.00
2019-05-21T11:26:35.945Z,7.20
2019-05-21T11:30:47.630Z,6.80
2019-05-21T11:34:59.410Z,7.00
2019-05-21T11:39:11.877Z,5.23
2019-05-21T11:43:23.648Z,4.20
2019-05-21T11:47:35.442Z,4.37
2019-05-21T11:51:47.065Z,4.60
2019-05-21T11:55:58.907Z,4.13
2019-05-21T12:00:11.369Z,3.97
2019-05-21T12:04:22.990Z,3.03
2019-05-21T12:08:34.757Z,3.27
2019-05-21T12:12:46.567Z,3.30
2019-05-21T12:16:58.352Z,3.00
2019-05-21T12:21:10.257Z,3.23
2019-05-21T12:25:21.925Z,4.67
2019-05-21T12:29:34.453Z,4.77
2019-05-21T12:33:46.085Z,4.33
2019-05-21T12:37:57.755Z,3.77
2019-05-21T12:42:09.612Z,3.57
2019-05-21T12:46:21.374Z,3.07
2019-05-21T12:50:33.200Z,3.17
2019-05-21T12:54:44.880Z,3.10
2019-05-21T12:58:56.709Z,3.20
2019-05-21T13:03:08.559Z,3.03
2019-05-21T13:07:20.454Z,2.87
2019-05-21T13:11:33.936Z,2.80
2019-05-21T13:15:45.816Z,2.73
2019-05-21T13:19:57.642Z,2.67
2019-05-21T13:24:09.694Z,3.00
2019-05-21T13:28:22.684Z,2.73
2019-05-21T13:32:34.393Z,2.63
2019-05-21T13:36:46.160Z,2.50
2019-05-21T13:40:58.968Z,2.20
2019-05-21T13:45:12.120Z,2.30
2019-05-21T13:49:23.918Z,3.10
2019-05-21T13:53:35.599Z,3.20
2019-05-21T13:57:47.410Z,3.20
2019-05-21T14:01:59.274Z,3.53
2019-05-21T14:06:11.220Z,2.80
2019-05-21T14:10:23.019Z,3.40
2019-05-21T14:14:34.628Z,3.23
2019-05-21T14:18:46.307Z,3.03
2019-05-21T14:22:58.277Z,3.03
2019-05-21T14:27:10.130Z,2.50
2019-05-21T14:31:21.923Z,2.80
2019-05-21T14:35:33.786Z,3.40
2019-05-21T14:39:45.445Z,2.63
2019-05-21T14:43:57.121Z,3.03
2019-05-21T14:48:09.026Z,2.73
2019-05-21T14:52:20.637Z,2.60
2019-05-21T14:56:33.457Z,2.60
2019-05-21T15:00:45.155Z,2.60
2019-05-21T15:04:57.051Z,2.10
2019-05-21T15:09:08.953Z,2.40
2019-05-21T15:13:20.753Z,2.20
2019-05-21T15:17:32.552Z,2.20
2019-05-21T15:21:48.654Z,2.03
2019-05-21T15:26:00.559Z,2.67
2019-05-21T15:30:12.700Z,2.47
2019-05-21T15:34:24.618Z,2.00
2019-05-21T15:38:49.349Z,1.70
2019-05-21T15:42:53.113Z,1.77
2019-05-21T15:47:03.265Z,1.60
2019-05-21T15:51:15.253Z,1.80
2019-05-21T15:55:27.065Z,1.50
2019-05-21T15:59:38.858Z,1.90
2019-05-21T16:03:50.474Z,1.70
2019-05-21T16:08:02.304Z,1.70
2019-05-21T16:12:14.168Z,1.80
2019-05-21T16:16:26.062Z,1.60
2019-05-21T16:20:37.860Z,1.90
2019-05-21T16:24:49.585Z,1.93
2019-05-21T16:29:01.340Z,1.80
2019-05-21T16:33:13.052Z,1.60
2019-05-21T16:37:25.009Z,1.80
2019-05-21T16:41:44.662Z,2.10
2019-05-21T16:45:50.505Z,1.70
2019-05-21T16:50:02.201Z,1.57
2019-05-21T16:54:13.985Z,2.10
2019-05-21T16:58:25.801Z,2.00
2019-05-21T17:02:37.605Z,2.07
2019-05-21T17:06:50.309Z,2.10
2019-05-21T17:11:02.206Z,2.00
2019-05-21T17:15:14.366Z,1.60
2019-05-21T17:19:26.797Z,1.67
2019-05-21T17:23:38.436Z,1.83
2019-05-21T17:27:50.314Z,1.90
2019-05-21T17:32:02.153Z,1.97
2019-05-21T17:36:14.112Z,2.05
2019-05-21T17:40:26.120Z,1.70
2019-05-21T17:44:37.974Z,2.00
2019-05-21T17:48:49.999Z,1.93
2019-05-21T17:53:01.785Z,1.77
2019-05-21T17:57:13.589Z,1.50
2019-05-21T18:01:25.583Z,1.80
2019-05-21T18:05:37.280Z,1.33
2019-05-21T18:09:50.009Z,1.83
2019-05-21T18:14:02.064Z,1.47
2019-05-21T18:18:14.828Z,1.70
2019-05-21T18:22:26.890Z,1.70
2019-05-21T18:26:38.764Z,1.57
2019-05-21T18:30:50.516Z,1.90
2019-05-21T18:35:02.344Z,1.97
2019-05-21T18:39:14.142Z,2.00
2019-05-21T18:43:26.019Z,1.50
2019-05-21T18:47:39.963Z,1.67
2019-05-21T18:51:51.794Z,1.87
2019-05-21T18:56:03.608Z,1.40
2019-05-21T19:00:15.692Z,1.70
2019-05-21T19:04:27.320Z,1.40
2019-05-21T19:08:39.005Z,1.50
2019-05-21T19:12:51.008Z,1.50
2019-05-21T19:17:04.439Z,1.60
2019-05-21T19:21:16.253Z,1.43
2019-05-21T19:25:28.166Z,1.70
2019-05-21T19:29:40.116Z,1.40
2019-05-21T19:33:56.137Z,1.90
2019-05-21T19:38:08.196Z,1.60
2019-05-21T19:42:24.053Z,1.83
2019-05-21T19:46:37.131Z,1.60
2019-05-21T19:50:48.888Z,1.63
2019-05-21T19:55:00.718Z,1.80
2019-05-21T19:59:12.502Z,1.73
2019-05-21T20:03:25.110Z,2.17
2019-05-21T20:07:37.933Z,2.40
2019-05-21T20:11:49.832Z,1.97
2019-05-21T20:16:03.275Z,2.10
2019-05-21T20:20:16.714Z,2.00
2019-05-21T20:24:29.212Z,2.30
2019-05-21T20:28:41.262Z,2.10
2019-05-21T20:32:54.484Z,1.90
2019-05-21T20:37:07.705Z,2.33
2019-05-21T20:41:19.714Z,2.13
2019-05-21T20:45:33.208Z,2.10
2019-05-21T20:49:46.369Z,2.00
2019-05-21T20:53:59.131Z,2.30
2019-05-21T20:58:10.955Z,1.97
2019-05-21T21:02:23.716Z,2.47
2019-05-21T21:06:36.378Z,2.50
2019-05-21T21:10:48.260Z,1.80
2019-05-21T21:15:00.877Z,2.20
2019-05-21T21:19:13.089Z,2.27
2019-05-21T21:23:26.743Z,2.70
2019-05-21T21:27:39.147Z,2.53
2019-05-21T21:31:50.943Z,2.57
2019-05-21T21:36:03.456Z,2.63
2019-05-21T21:40:17.473Z,2.10
2019-05-21T21:44:34.237Z,2.53
2019-05-21T21:48:45.443Z,2.43
2019-05-21T21:52:57.085Z,2.50
2019-05-21T21:57:09.836Z,3.00
2019-05-21T22:01:50.430Z,2.67
2019-05-21T22:06:08.113Z,3.20
2019-05-21T22:10:24.815Z,3.00
2019-05-21T22:14:49.752Z,2.93
2019-05-21T22:18:50.742Z,3.20
2019-05-21T22:23:03.167Z,3.17
2019-05-21T22:27:15.415Z,3.43
2019-05-21T22:31:27.316Z,3.93
2019-05-21T22:35:39.170Z,3.50
2019-05-21T22:39:51.166Z,4.00
2019-05-21T22:44:02.981Z,3.77
2019-05-21T22:48:14.797Z,4.03
2019-05-21T22:52:26.389Z,4.10
2019-05-21T22:56:39.253Z,3.60
2019-05-21T23:00:53.142Z,4.00
2019-05-21T23:05:05.403Z,4.17
2019-05-21T23:09:17.356Z,4.10
2019-05-21T23:13:29.164Z,3.90
2019-05-21T23:17:40.996Z,3.73
2019-05-21T23:21:53.780Z,3.87
2019-05-21T23:26:06.536Z,4.03
2019-05-21T23:30:20.793Z,3.53
2019-05-21T23:34:32.978Z,4.10
2019-05-21T23:38:45.368Z,4.00
2019-05-21T23:42:57.371Z,4.27
2019-05-21T23:47:13.592Z,4.40
2019-05-21T23:51:25.569Z,3.77
2019-05-21T23:55:38.484Z,4.13
2019-05-21T23:59:51.897Z,4.50
